createdAt,value
2017-05-07T00:01:48.402Z,95062.91
2017-05-07T00:04:15.317Z,95060.68
2017-05-07T00:06:41.449Z,95064.59
2017-05-07T00:09:07.634Z,95061.44
2017-05-07T00:11:34.000Z,95067.95
2017-05-07T00:14:00.912Z,95070.17
2017-05-07T00:16:27.825Z,95071.84
2017-05-07T00:18:54.141Z,95073.70
2017-05-07T00:21:21.049Z,95082.06
2017-05-07T00:23:47.214Z,95070.55
2017-05-07T00:26:14.166Z,95075.02
2017-05-07T00:28:41.053Z,95075.58
2017-05-07T00:31:07.985Z,95075.95
2017-05-07T00:33:34.158Z,95083.20
2017-05-07T00:36:01.069Z,95076.89
2017-05-07T00:38:27.332Z,95086.72
2017-05-07T00:40:53.570Z,95087.84
2017-05-07T00:43:19.733Z,95078.36
2017-05-07T00:45:45.943Z,95072.41
2017-05-07T00:48:12.185Z,95087.45
2017-05-07T00:50:38.363Z,95089.31
2017-05-07T00:53:05.264Z,95086.16
2017-05-07T00:55:31.498Z,95090.05
2017-05-07T00:57:57.683Z,95091.30
2017-05-07T01:00:24.599Z,95086.70
2017-05-07T01:02:50.769Z,95096.69
2017-05-07T01:05:16.926Z,95096.51
2017-05-07T01:07:43.078Z,95100.04
2017-05-07T01:10:09.265Z,95094.83
2017-05-07T01:12:35.432Z,95095.94
2017-05-07T01:15:02.332Z,95096.31
2017-05-07T01:17:29.282Z,95097.80
2017-05-07T01:19:56.269Z,95105.23
2017-05-07T01:22:23.250Z,95103.00
2017-05-07T01:24:49.415Z,95115.99
2017-05-07T01:27:16.322Z,95105.40
2017-05-07T01:29:42.497Z,95110.61
2017-05-07T01:32:09.374Z,95113.41
2017-05-07T01:34:35.522Z,95114.52
2017-05-07T01:37:02.448Z,95115.25
2017-05-07T01:39:28.598Z,95117.09
2017-05-07T01:41:54.745Z,95112.81
2017-05-07T01:44:21.669Z,95115.97
2017-05-07T01:46:47.839Z,95121.91
2017-05-07T01:49:13.977Z,95117.08
2017-05-07T01:51:40.157Z,95121.48
2017-05-07T01:54:06.341Z,95121.80
2017-05-07T01:56:32.649Z,95124.78
2017-05-07T01:58:58.825Z,95126.81
2017-05-07T02:01:24.994Z,95122.16
2017-05-07T02:03:51.182Z,95127.35
2017-05-07T02:06:17.359Z,95123.42
2017-05-07T02:08:43.515Z,95126.54
2017-05-07T02:11:09.690Z,95119.66
2017-05-07T02:13:35.834Z,95128.36
2017-05-07T02:16:02.053Z,95127.97
2017-05-07T02:18:28.233Z,95126.67
2017-05-07T02:20:54.392Z,95127.39
2017-05-07T02:23:21.290Z,95134.26
2017-05-07T02:25:48.213Z,95145.52
2017-05-07T02:28:14.373Z,95127.50
2017-05-07T02:30:41.262Z,95132.30
2017-05-07T02:33:07.441Z,95131.37
2017-05-07T02:35:33.618Z,95138.25
2017-05-07T02:37:59.766Z,95125.58
2017-05-07T02:40:26.762Z,95128.17
2017-05-07T02:42:57.170Z,95132.23
2017-05-07T02:45:23.329Z,95139.47
2017-05-07T02:47:50.267Z,95139.23
2017-05-07T02:50:16.419Z,95135.31
2017-05-07T02:52:43.306Z,95131.04
2017-05-07T02:55:09.486Z,95130.64
2017-05-07T02:57:36.384Z,95130.66
2017-05-07T03:00:02.550Z,95125.79
2017-05-07T03:02:29.494Z,95130.45
2017-05-07T03:04:56.402Z,95132.83
2017-05-07T03:07:22.550Z,95138.03
2017-05-07T03:09:48.742Z,95143.95
2017-05-07T03:12:14.904Z,95139.88
2017-05-07T03:14:41.035Z,95140.19
2017-05-07T03:17:07.224Z,95144.13
2017-05-07T03:19:33.383Z,95144.52
2017-05-07T03:22:00.305Z,95140.98
2017-05-07T03:24:26.510Z,95136.84
2017-05-07T03:26:53.393Z,95135.73
2017-05-07T03:29:20.634Z,95139.27
2017-05-07T03:31:46.914Z,95139.07
2017-05-07T03:34:13.801Z,95136.83
2017-05-07T03:36:40.004Z,95132.92
2017-05-07T03:39:07.155Z,95145.34
2017-05-07T03:41:34.066Z,95138.47
2017-05-07T03:44:00.235Z,95141.28
2017-05-07T03:46:27.299Z,95139.61
2017-05-07T03:48:54.194Z,95144.43
2017-05-07T03:51:20.450Z,95132.19
2017-05-07T03:53:47.524Z,95142.02
2017-05-07T03:56:14.586Z,95139.05
2017-05-07T03:58:41.489Z,95137.56
2017-05-07T04:01:08.582Z,95136.45
2017-05-07T04:03:35.549Z,95137.97
2017-05-07T04:06:01.702Z,95141.28
2017-05-07T04:08:28.602Z,95145.17
2017-05-07T04:10:54.971Z,95139.99
2017-05-07T04:13:21.906Z,95154.46
2017-05-07T04:15:48.882Z,95141.66
2017-05-07T04:18:15.035Z,95147.98
2017-05-07T04:20:41.918Z,95148.53
2017-05-07T04:23:08.096Z,95142.27
2017-05-07T04:25:34.238Z,95145.81
2017-05-07T04:28:00.378Z,95137.67
2017-05-07T04:30:26.667Z,95147.32
2017-05-07T04:32:53.539Z,95145.09
2017-05-07T04:35:19.686Z,95151.41
2017-05-07T04:37:45.854Z,95153.06
2017-05-07T04:40:11.990Z,95151.44
2017-05-07T04:42:38.122Z,95157.57
2017-05-07T04:45:04.296Z,95157.77
2017-05-07T04:47:30.429Z,95156.09
2017-05-07T04:49:57.318Z,95175.20
2017-05-07T04:52:23.598Z,95167.44
2017-05-07T04:54:50.477Z,95170.03
2017-05-07T04:57:17.442Z,95166.52
2017-05-07T04:59:43.606Z,95175.84
2017-05-07T05:02:09.751Z,95186.25
2017-05-07T05:04:36.649Z,95181.07
2017-05-07T05:07:03.530Z,95189.41
2017-05-07T05:09:29.671Z,95189.61
2017-05-07T05:11:55.876Z,95184.41
2017-05-07T05:14:22.756Z,95197.98
2017-05-07T05:16:49.677Z,95192.45
2017-05-07T05:19:33.874Z,95190.99
2017-05-07T05:22:18.501Z,95188.28
2017-05-07T05:27:50.241Z,95195.17
2017-05-07T05:30:16.433Z,95196.30
2017-05-07T05:32:43.476Z,95192.95
2017-05-07T05:35:09.646Z,95203.90
2017-05-07T05:37:36.533Z,95200.94
2017-05-07T05:40:02.698Z,95202.45
2017-05-07T05:42:29.576Z,95206.56
2017-05-07T05:44:55.714Z,95208.58
2017-05-07T05:47:22.644Z,95207.50
2017-05-07T05:49:56.508Z,95215.35
2017-05-07T05:52:23.733Z,95215.36
2017-05-07T05:54:51.610Z,95214.66
2017-05-07T05:57:18.486Z,95215.98
2017-05-07T05:59:44.680Z,95219.13
2017-05-07T06:02:10.885Z,95218.83
2017-05-07T06:04:37.778Z,95217.08
2017-05-07T06:07:03.953Z,95225.64
2017-05-07T06:09:30.826Z,95221.19
2017-05-07T06:11:57.712Z,95230.08
2017-05-07T06:14:23.879Z,95229.15
2017-05-07T06:16:50.034Z,95229.52
2017-05-07T06:19:16.170Z,95231.77
2017-05-07T06:21:42.388Z,95233.08
2017-05-07T06:24:10.336Z,95239.02
2017-05-07T06:26:38.013Z,95237.63
2017-05-07T06:29:04.233Z,95240.16
2017-05-07T06:31:30.532Z,95241.27
2017-05-07T06:33:56.748Z,95247.25
2017-05-07T06:36:22.979Z,95249.12
2017-05-07T06:38:49.918Z,95250.55
2017-05-07T06:41:16.857Z,95249.04
2017-05-07T06:43:43.432Z,95253.86
2017-05-07T06:46:09.676Z,95251.80
2017-05-07T06:48:36.561Z,95255.38
2017-05-07T06:51:02.713Z,95256.31
2017-05-07T06:53:29.632Z,95259.26
2017-05-07T06:55:56.849Z,95255.18
2017-05-07T06:58:23.082Z,95258.58
2017-05-07T07:00:49.391Z,95260.82
2017-05-07T07:03:15.537Z,95256.41
2017-05-07T07:05:42.511Z,95263.68
2017-05-07T07:08:09.475Z,95268.16
2017-05-07T07:10:36.392Z,95262.97
2017-05-07T07:13:03.338Z,95262.20
2017-05-07T07:15:30.262Z,95270.94
2017-05-07T07:17:56.794Z,95275.08
2017-05-07T07:20:23.146Z,95266.58
2017-05-07T07:22:49.389Z,95274.44
2017-05-07T07:25:15.854Z,95271.50
2017-05-07T07:27:43.107Z,95275.42
2017-05-07T07:30:10.091Z,95268.39
2017-05-07T07:32:36.273Z,95276.20
2017-05-07T07:35:03.221Z,95270.19
2017-05-07T07:37:29.385Z,95264.78
2017-05-07T07:39:55.594Z,95265.14
2017-05-07T07:42:22.522Z,95264.78
2017-05-07T07:44:49.508Z,95271.77
2017-05-07T07:47:16.436Z,95266.22
2017-05-07T07:49:42.698Z,95267.17
2017-05-07T07:52:09.641Z,95271.88
2017-05-07T07:54:36.593Z,95264.02
2017-05-07T07:57:03.667Z,95273.92
2017-05-07T07:59:30.041Z,95272.09
2017-05-07T08:01:56.325Z,95264.48
2017-05-07T08:04:23.417Z,95272.91
2017-05-07T08:06:50.410Z,95270.13
2017-05-07T08:09:16.581Z,95265.47
2017-05-07T08:11:42.781Z,95276.66
2017-05-07T08:14:09.744Z,95276.30
2017-05-07T08:16:36.629Z,95273.50
2017-05-07T08:19:02.826Z,95278.87
2017-05-07T08:21:29.034Z,95279.84
2017-05-07T08:23:55.293Z,95277.59
2017-05-07T08:26:22.243Z,95284.67
2017-05-07T08:28:49.231Z,95288.03
2017-05-07T08:31:16.454Z,95284.13
2017-05-07T08:33:43.717Z,95292.48
2017-05-07T08:36:10.667Z,95291.05
2017-05-07T08:38:37.822Z,95294.24
2017-05-07T08:41:04.810Z,95292.02
2017-05-07T08:43:31.924Z,95293.75
2017-05-07T08:45:58.883Z,95297.50
2017-05-07T08:48:25.814Z,95302.14
2017-05-07T08:50:52.049Z,95306.80
2017-05-07T08:53:19.131Z,95302.55
2017-05-07T08:55:46.026Z,95309.78
2017-05-07T08:58:12.270Z,95307.94
2017-05-07T09:00:38.521Z,95310.14
2017-05-07T09:03:05.477Z,95304.73
2017-05-07T09:05:32.405Z,95311.08
2017-05-07T09:07:58.550Z,95315.38
2017-05-07T09:10:24.802Z,95315.95
2017-05-07T09:16:24.984Z,95315.28
2017-05-07T09:19:10.869Z,95323.66
2017-05-07T09:21:38.525Z,95318.80
2017-05-07T09:24:04.730Z,95329.05
2017-05-07T09:26:30.889Z,95321.42
2017-05-07T09:28:57.190Z,95325.97
2017-05-07T09:31:23.372Z,95331.10
2017-05-07T09:33:49.690Z,95326.27
2017-05-07T09:36:15.852Z,95328.36
2017-05-07T09:38:42.078Z,95334.13
2017-05-07T09:41:08.248Z,95331.53
2017-05-07T09:43:35.186Z,95333.94
2017-05-07T09:46:02.095Z,95336.70
2017-05-07T09:48:28.260Z,95330.91
2017-05-07T09:50:55.212Z,95339.53
2017-05-07T09:53:22.192Z,95343.77
2017-05-07T09:55:48.630Z,95345.82
2017-05-07T09:58:14.790Z,95336.52
2017-05-07T10:00:40.953Z,95337.48
2017-05-07T10:03:07.210Z,95337.53
2017-05-07T10:05:33.399Z,95340.14
2017-05-07T10:07:59.665Z,95343.72
2017-05-07T10:10:25.912Z,95348.02
2017-05-07T10:12:52.981Z,95344.84
2017-05-07T10:15:19.941Z,95339.64
2017-05-07T10:17:46.846Z,95345.42
2017-05-07T10:20:12.988Z,95348.95
2017-05-07T10:22:40.361Z,95348.58
2017-05-07T10:25:06.736Z,95348.39
2017-05-07T10:27:33.038Z,95342.47
2017-05-07T10:29:59.953Z,95349.75
2017-05-07T10:32:27.775Z,95346.20
2017-05-07T10:34:53.946Z,95349.17
2017-05-07T10:37:20.845Z,95349.55
2017-05-07T10:39:47.746Z,95348.48
2017-05-07T10:42:14.649Z,95343.09
2017-05-07T10:44:40.816Z,95338.80
2017-05-07T10:47:07.734Z,95340.29
2017-05-07T10:49:33.959Z,95337.31
2017-05-07T10:52:00.838Z,95353.35
2017-05-07T10:54:27.029Z,95345.68
2017-05-07T10:56:53.971Z,95353.84
2017-05-07T10:59:20.938Z,95347.36
2017-05-07T11:01:47.874Z,95341.02
2017-05-07T11:04:14.823Z,95344.16
2017-05-07T11:06:41.003Z,95348.25
2017-05-07T11:09:07.191Z,95348.25
2017-05-07T11:11:33.417Z,95351.00
2017-05-07T11:13:59.658Z,95347.13
2017-05-07T11:16:25.922Z,95344.56
2017-05-07T11:18:52.171Z,95346.57
2017-05-07T11:21:18.611Z,95344.47
2017-05-07T11:23:44.837Z,95344.84
2017-05-07T11:26:11.051Z,95348.00
2017-05-07T11:28:37.986Z,95348.02
2017-05-07T11:31:04.591Z,95352.50
2017-05-07T11:33:31.129Z,95348.58
2017-05-07T11:35:57.515Z,95346.58
2017-05-07T11:38:24.526Z,95352.16
2017-05-07T11:40:50.693Z,95345.27
2017-05-07T11:43:18.127Z,95344.34
2017-05-07T11:45:44.631Z,95354.97
2017-05-07T11:48:10.805Z,95348.47
2017-05-07T11:50:38.570Z,95353.66
2017-05-07T11:53:05.014Z,95341.55
2017-05-07T11:55:31.510Z,95344.71
2017-05-07T11:57:57.842Z,95339.50
2017-05-07T12:00:24.275Z,95345.68
2017-05-07T12:02:51.197Z,95338.97
2017-05-07T12:05:17.458Z,95336.17
2017-05-07T12:07:44.344Z,95344.59
2017-05-07T12:10:10.513Z,95336.00
2017-05-07T12:12:38.193Z,95334.14
2017-05-07T12:15:04.375Z,95331.72
2017-05-07T12:17:30.525Z,95331.91
2017-05-07T12:19:56.712Z,95336.56
2017-05-07T12:22:22.922Z,95346.64
2017-05-07T12:24:49.101Z,95339.72
2017-05-07T12:27:15.265Z,95330.39
2017-05-07T12:29:42.142Z,95341.05
2017-05-07T12:32:09.030Z,95332.84
2017-05-07T12:34:35.198Z,95330.23
2017-05-07T12:37:01.372Z,95338.44
2017-05-07T12:39:28.422Z,95335.08
2017-05-07T12:41:55.379Z,95341.05
2017-05-07T12:44:22.378Z,95344.20
2017-05-07T12:46:48.523Z,95339.20
2017-05-07T12:49:14.705Z,95339.94
2017-05-07T12:51:40.857Z,95341.41
2017-05-07T12:54:07.013Z,95342.17
2017-05-07T12:56:33.296Z,95339.72
2017-05-07T12:58:59.522Z,95339.72
2017-05-07T13:01:26.430Z,95344.78
2017-05-07T13:03:53.038Z,95339.36
2017-05-07T13:06:19.193Z,95346.27
2017-05-07T13:08:46.122Z,95340.30
2017-05-07T13:11:12.392Z,95342.55
2017-05-07T13:13:38.558Z,95340.09
2017-05-07T13:16:05.474Z,95340.30
2017-05-07T13:18:32.362Z,95331.70
2017-05-07T13:20:59.293Z,95335.08
2017-05-07T13:23:25.550Z,95331.86
2017-05-07T13:25:52.450Z,95336.92
2017-05-07T13:28:18.884Z,95338.39
2017-05-07T13:30:45.047Z,95336.33
2017-05-07T13:33:12.598Z,95333.47
2017-05-07T13:35:38.878Z,95328.19
2017-05-07T13:38:05.078Z,95322.40
2017-05-07T13:40:32.059Z,95321.51
2017-05-07T13:42:58.994Z,95322.53
2017-05-07T13:45:25.240Z,95318.80
2017-05-07T13:47:52.194Z,95311.36
2017-05-07T13:50:19.129Z,95311.80
2017-05-07T13:52:45.390Z,95314.85
2017-05-07T13:55:11.562Z,95313.58
2017-05-07T13:57:37.762Z,95315.45
2017-05-07T14:00:04.671Z,95310.48
2017-05-07T14:02:30.909Z,95319.02
2017-05-07T14:04:57.073Z,95314.97
2017-05-07T14:07:23.382Z,95321.46
2017-05-07T14:09:49.539Z,95311.34
2017-05-07T14:12:15.691Z,95306.41
2017-05-07T14:14:41.859Z,95307.59
2017-05-07T14:17:08.008Z,95308.63
2017-05-07T14:19:34.177Z,95303.47
2017-05-07T14:22:01.093Z,95305.93
2017-05-07T14:24:27.995Z,95303.98
2017-05-07T14:26:54.950Z,95303.33
2017-05-07T14:29:21.878Z,95299.09
2017-05-07T14:31:48.049Z,95301.85
2017-05-07T14:34:14.202Z,95301.45
2017-05-07T14:36:40.357Z,95308.27
2017-05-07T14:39:07.262Z,95311.81
2017-05-07T14:41:33.506Z,95313.17
2017-05-07T14:43:59.658Z,95296.00
2017-05-07T14:46:25.959Z,95293.59
2017-05-07T14:48:52.150Z,95297.96
2017-05-07T14:51:19.053Z,95304.15
2017-05-07T14:53:45.277Z,95297.41
2017-05-07T14:56:11.462Z,95298.89
2017-05-07T14:58:38.384Z,95295.66
2017-05-07T15:01:04.545Z,95300.66
2017-05-07T15:03:30.738Z,95306.45
2017-05-07T15:05:56.904Z,95300.89
2017-05-07T15:08:23.804Z,95315.14
2017-05-07T15:10:49.952Z,95303.84
2017-05-07T15:13:16.138Z,95303.52
2017-05-07T15:15:43.082Z,95307.73
2017-05-07T15:18:10.014Z,95307.38
2017-05-07T15:20:36.181Z,95307.94
2017-05-07T15:23:02.609Z,95306.87
2017-05-07T15:25:28.753Z,95304.81
2017-05-07T15:27:54.914Z,95305.02
2017-05-07T15:30:21.102Z,95305.21
2017-05-07T15:32:48.053Z,95310.86
2017-05-07T15:35:14.986Z,95304.94
2017-05-07T15:37:41.933Z,95310.36
2017-05-07T15:40:08.228Z,95313.93
2017-05-07T15:42:35.163Z,95313.72
2017-05-07T15:45:02.050Z,95316.73
2017-05-07T15:47:28.294Z,95308.14
2017-05-07T15:49:54.483Z,95312.63
2017-05-07T15:52:21.385Z,95305.70
2017-05-07T15:54:47.559Z,95307.78
2017-05-07T15:57:13.730Z,95306.13
2017-05-07T15:59:41.445Z,95307.42
2017-05-07T16:02:08.374Z,95303.11
2017-05-07T16:04:34.827Z,95302.03
2017-05-07T16:07:07.422Z,95305.94
2017-05-07T16:09:33.869Z,95304.83
2017-05-07T16:12:00.184Z,95306.87
2017-05-07T16:14:27.115Z,95306.50
2017-05-07T16:17:06.275Z,95309.88
2017-05-07T16:19:40.300Z,95308.01
2017-05-07T16:25:30.131Z,95308.78
2017-05-07T16:27:59.934Z,95307.29
2017-05-07T16:30:27.098Z,95311.20
2017-05-07T16:32:54.523Z,95313.63
2017-05-07T16:35:21.615Z,95310.09
2017-05-07T16:37:48.756Z,95316.62
2017-05-07T16:40:15.030Z,95311.75
2017-05-07T16:42:41.337Z,95307.25
2017-05-07T16:45:07.925Z,95306.51
2017-05-07T16:47:34.086Z,95315.60
2017-05-07T16:50:00.427Z,95314.48
2017-05-07T16:52:26.637Z,95312.98
2017-05-07T16:54:52.830Z,95312.24
2017-05-07T16:57:19.074Z,95308.15
2017-05-07T16:59:46.026Z,95301.44
2017-05-07T17:02:13.125Z,95308.71
2017-05-07T17:04:40.248Z,95311.88
2017-05-07T17:07:12.609Z,95310.39
2017-05-07T17:09:40.253Z,95311.12
2017-05-07T17:12:06.790Z,95307.16
2017-05-07T17:14:33.194Z,95309.17
2017-05-07T17:16:59.449Z,95312.48
2017-05-07T17:19:27.052Z,95315.88
2017-05-07T17:21:53.261Z,95309.12
2017-05-07T17:24:19.709Z,95316.38
2017-05-07T17:26:46.704Z,95315.06
2017-05-07T17:29:12.920Z,95307.80
2017-05-07T17:31:40.832Z,95309.80
2017-05-07T17:34:07.025Z,95314.81
2017-05-07T17:36:35.102Z,95314.23
2017-05-07T17:39:03.115Z,95317.41
2017-05-07T17:41:31.106Z,95312.19
2017-05-07T17:43:57.486Z,95320.70
2017-05-07T17:46:23.734Z,95311.02
2017-05-07T17:48:50.984Z,95310.09
2017-05-07T17:51:17.462Z,95312.67
2017-05-07T17:53:43.691Z,95320.30
2017-05-07T17:56:10.037Z,95326.78
2017-05-07T17:58:36.953Z,95321.75
2017-05-07T18:01:03.256Z,95326.16
2017-05-07T18:03:29.418Z,95322.44
2017-05-07T18:05:55.545Z,95318.70
2017-05-07T18:08:22.449Z,95318.67
2017-05-07T18:10:48.784Z,95322.13
2017-05-07T18:13:15.526Z,95327.52
2017-05-07T18:15:41.980Z,95324.34
2017-05-07T18:18:09.408Z,95333.80
2017-05-07T18:20:36.370Z,95325.75
2017-05-07T18:23:02.665Z,95334.71
2017-05-07T18:25:29.611Z,95337.09
2017-05-07T18:27:56.511Z,95334.67
2017-05-07T18:30:22.810Z,95335.41
2017-05-07T18:32:49.171Z,95344.11
2017-05-07T18:35:15.415Z,95343.77
2017-05-07T18:37:41.970Z,95347.84
2017-05-07T18:40:09.234Z,95342.06
2017-05-07T18:42:35.561Z,95343.53
2017-05-07T18:45:02.592Z,95344.84
2017-05-07T18:47:29.134Z,95344.45
2017-05-07T18:49:56.148Z,95343.34
2017-05-07T18:52:23.336Z,95348.19
2017-05-07T18:54:49.516Z,95347.08
2017-05-07T18:57:15.862Z,95349.11
2017-05-07T18:59:42.404Z,95352.43
2017-05-07T19:02:09.325Z,95351.16
2017-05-07T19:04:35.638Z,95355.78
2017-05-07T19:07:02.932Z,95357.80
2017-05-07T19:09:29.213Z,95358.92
2017-05-07T19:11:56.149Z,95363.05
2017-05-07T19:14:23.027Z,95361.52
2017-05-07T19:16:49.918Z,95365.38
2017-05-07T19:19:16.310Z,95359.81
2017-05-07T19:21:42.670Z,95359.13
2017-05-07T19:24:09.117Z,95366.36
2017-05-07T19:26:36.216Z,95372.69
2017-05-07T19:29:03.110Z,95371.71
2017-05-07T19:31:30.525Z,95376.35
2017-05-07T19:33:56.758Z,95370.77
2017-05-07T19:36:23.852Z,95367.98
2017-05-07T19:38:51.069Z,95367.78
2017-05-07T19:41:18.736Z,95377.45
2017-05-07T19:43:45.998Z,95374.07
2017-05-07T19:46:13.083Z,95369.47
2017-05-07T19:48:40.019Z,95379.84
2017-05-07T19:51:07.048Z,95380.01
2017-05-07T19:53:34.055Z,95375.16
2017-05-07T19:56:01.567Z,95375.52
2017-05-07T19:58:28.493Z,95371.09
2017-05-07T20:00:56.113Z,95376.81
2017-05-07T20:03:23.242Z,95376.42
2017-05-07T20:05:49.927Z,95376.08
2017-05-07T20:08:17.594Z,95381.47
2017-05-07T20:10:44.215Z,95377.36
2017-05-07T20:13:10.374Z,95372.73
2017-05-07T20:15:36.510Z,95376.42
2017-05-07T20:18:02.692Z,95367.87
2017-05-07T20:20:29.598Z,95367.30
2017-05-07T20:22:55.749Z,95372.09
2017-05-07T20:25:22.058Z,95368.42
2017-05-07T20:27:48.225Z,95370.23
2017-05-07T20:30:14.397Z,95363.36
2017-05-07T20:32:41.290Z,95366.16
2017-05-07T20:35:07.454Z,95362.79
2017-05-07T20:37:34.411Z,95363.59
2017-05-07T20:40:01.294Z,95362.05
2017-05-07T20:42:28.269Z,95359.45
2017-05-07T20:44:54.414Z,95357.96
2017-05-07T20:47:21.322Z,95353.13
2017-05-07T20:49:47.540Z,95356.66
2017-05-07T20:52:14.043Z,95354.45
2017-05-07T20:54:40.211Z,95351.80
2017-05-07T20:57:06.381Z,95349.39
2017-05-07T20:59:33.302Z,95346.19
2017-05-07T21:01:59.489Z,95352.52
2017-05-07T21:04:25.717Z,95350.07
2017-05-07T21:06:57.260Z,95353.66
2017-05-07T21:09:23.700Z,95351.40
2017-05-07T21:11:49.914Z,95340.44
2017-05-07T21:14:16.130Z,95342.11
2017-05-07T21:16:42.530Z,95339.14
2017-05-07T21:19:09.508Z,95336.73
2017-05-07T21:21:37.377Z,95337.84
2017-05-07T21:24:05.605Z,95334.31
2017-05-07T21:26:32.677Z,95338.95
2017-05-07T21:29:00.633Z,95335.63
2017-05-07T21:31:26.881Z,95334.67
2017-05-07T21:33:53.429Z,95332.08
2017-05-07T21:36:19.645Z,95331.52
2017-05-07T21:38:46.858Z,95328.56
2017-05-07T21:41:13.198Z,95333.58
2017-05-07T21:43:39.513Z,95335.06
2017-05-07T21:46:06.547Z,95327.06
2017-05-07T21:48:32.693Z,95325.61
2017-05-07T21:50:59.656Z,95328.59
2017-05-07T21:53:26.566Z,95329.87
2017-05-07T21:55:53.516Z,95327.60
2017-05-07T21:58:19.734Z,95330.02
2017-05-07T22:00:45.919Z,95327.98
2017-05-07T22:03:12.925Z,95329.11
2017-05-07T22:05:39.169Z,95325.19
2017-05-07T22:08:05.438Z,95329.27
2017-05-07T22:10:36.770Z,95325.19
2017-05-07T22:13:02.947Z,95327.44
2017-05-07T22:15:32.950Z,95323.34
2017-05-07T22:18:04.133Z,95322.19
2017-05-07T22:20:35.102Z,95328.14
2017-05-07T22:23:05.569Z,95320.34
2017-05-07T22:25:32.103Z,95325.15
2017-05-07T22:27:59.065Z,95317.34
2017-05-07T22:30:26.173Z,95322.76
2017-05-07T22:32:52.333Z,95320.16
2017-05-07T22:35:18.494Z,95326.51
2017-05-07T22:37:44.646Z,95319.45
2017-05-07T22:40:10.925Z,95314.98
2017-05-07T22:42:37.083Z,95322.94
2017-05-07T22:45:03.957Z,95320.71
2017-05-07T22:47:30.090Z,95325.33
2017-05-07T22:49:56.261Z,95319.01
2017-05-07T22:52:22.444Z,95316.22
2017-05-07T22:54:48.610Z,95324.50
2017-05-07T22:57:14.754Z,95329.70
2017-05-07T22:59:40.938Z,95316.22
2017-05-07T23:02:07.853Z,95316.59
2017-05-07T23:04:35.214Z,95318.55
2017-05-07T23:07:01.414Z,95313.53
2017-05-07T23:09:28.298Z,95309.07
2017-05-07T23:11:54.528Z,95305.14
2017-05-07T23:14:20.728Z,95305.35
2017-05-07T23:16:46.955Z,95311.09
2017-05-07T23:19:13.103Z,95302.73
2017-05-07T23:21:40.014Z,95296.57
2017-05-07T23:24:06.204Z,95300.14
2017-05-07T23:26:33.371Z,95298.27
2017-05-07T23:28:59.643Z,95301.78
2017-05-07T23:31:26.688Z,95300.67
2017-05-07T23:33:52.880Z,95293.97
2017-05-07T23:36:19.027Z,95295.23
2017-05-07T23:38:46.020Z,95295.27
2017-05-07T23:41:12.219Z,95296.00
2017-05-07T23:43:39.271Z,95289.86
2017-05-07T23:46:05.429Z,95294.34
2017-05-07T23:48:32.341Z,95290.81
2017-05-07T23:50:58.496Z,95291.58
2017-05-07T23:53:25.400Z,95288.96
2017-05-07T23:55:51.670Z,95286.53
2017-05-07T23:58:17.817Z,95282.63
